sensor_id;sensor_type;location;lat;lon;timestamp;P1;durP1;ratioP1;P2;durP2;ratioP2
1885;SDS011;943;51.568;6.998;2023-04-24T00:01:31;3.43;;;1.30;;
1885;SDS011;943;51.568;6.998;2023-04-24T00:04:00;3.37;;;1.50;;
1885;SDS011;943;51.568;6.998;2023-04-24T00:06:30;2.77;;;1.47;;
1885;SDS011;943;51.568;6.998;2023-04-24T00:09:01;2.30;;;1.30;;
1885;SDS011;943;51.568;6.998;2023-04-24T00:11:31;2.87;;;1.53;;
1885;SDS011;943;51.568;6.998;2023-04-24T00:13:59;2.87;;;1.40;;
1885;SDS011;943;51.568;6.998;2023-04-24T00:16:27;3.90;;;1.80;;
1885;SDS011;943;51.568;6.998;2023-04-24T00:18:55;2.50;;;1.40;;
1885;SDS011;943;51.568;6.998;2023-04-24T00:21:23;3.00;;;1.07;;
1885;SDS011;943;51.568;6.998;2023-04-24T00:23:52;2.40;;;1.10;;
1885;SDS011;943;51.568;6.998;2023-04-24T00:26:20;2.47;;;1.10;;
1885;SDS011;943;51.568;6.998;2023-04-24T00:28:48;2.53;;;1.03;;
1885;SDS011;943;51.568;6.998;2023-04-24T00:31:16;4.10;;;1.30;;
1885;SDS011;943;51.568;6.998;2023-04-24T00:33:44;4.17;;;1.30;;
1885;SDS011;943;51.568;6.998;2023-04-24T00:36:12;2.83;;;1.03;;
1885;SDS011;943;51.568;6.998;2023-04-24T00:38:40;2.33;;;1.20;;
1885;SDS011;943;51.568;6.998;2023-04-24T00:41:07;2.60;;;1.10;;
1885;SDS011;943;51.568;6.998;2023-04-24T00:43:35;1.87;;;1.03;;
1885;SDS011;943;51.568;6.998;2023-04-24T00:46:03;4.80;;;1.47;;
1885;SDS011;943;51.568;6.998;2023-04-24T00:48:32;2.40;;;1.50;;
1885;SDS011;943;51.568;6.998;2023-04-24T00:51:01;3.63;;;1.47;;
1885;SDS011;943;51.568;6.998;2023-04-24T00:53:29;2.63;;;1.50;;
1885;SDS011;943;51.568;6.998;2023-04-24T00:55:57;2.73;;;1.77;;
1885;SDS011;943;51.568;6.998;2023-04-24T00:58:27;3.60;;;1.70;;
1885;SDS011;943;51.568;6.998;2023-04-24T01:00:57;2.57;;;1.73;;
1885;SDS011;943;51.568;6.998;2023-04-24T01:03:29;4.33;;;1.93;;
1885;SDS011;943;51.568;6.998;2023-04-24T01:05:58;3.93;;;2.40;;
1885;SDS011;943;51.568;6.998;2023-04-24T01:08:28;4.17;;;2.30;;
1885;SDS011;943;51.568;6.998;2023-04-24T01:10:56;3.77;;;2.70;;
1885;SDS011;943;51.568;6.998;2023-04-24T01:13:24;3.50;;;2.90;;
1885;SDS011;943;51.568;6.998;2023-04-24T01:15:53;4.53;;;3.00;;
1885;SDS011;943;51.568;6.998;2023-04-24T01:18:21;4.60;;;3.17;;
1885;SDS011;943;51.568;6.998;2023-04-24T01:20:50;4.53;;;2.53;;
1885;SDS011;943;51.568;6.998;2023-04-24T01:23:24;5.00;;;3.43;;
1885;SDS011;943;51.568;6.998;2023-04-24T01:25:53;4.67;;;2.97;;
1885;SDS011;943;51.568;6.998;2023-04-24T01:28:21;5.83;;;3.70;;
1885;SDS011;943;51.568;6.998;2023-04-24T01:30:50;7.77;;;4.87;;
1885;SDS011;943;51.568;6.998;2023-04-24T01:33:22;5.43;;;4.37;;
1885;SDS011;943;51.568;6.998;2023-04-24T01:35:50;8.63;;;4.30;;
1885;SDS011;943;51.568;6.998;2023-04-24T01:38:19;6.60;;;4.43;;
1885;SDS011;943;51.568;6.998;2023-04-24T01:40:47;8.10;;;3.83;;
1885;SDS011;943;51.568;6.998;2023-04-24T01:43:16;7.47;;;4.70;;
1885;SDS011;943;51.568;6.998;2023-04-24T01:45:45;7.00;;;4.90;;
1885;SDS011;943;51.568;6.998;2023-04-24T01:48:13;12.57;;;5.10;;
1885;SDS011;943;51.568;6.998;2023-04-24T01:50:41;6.77;;;5.10;;
1885;SDS011;943;51.568;6.998;2023-04-24T01:53:10;8.73;;;5.30;;
1885;SDS011;943;51.568;6.998;2023-04-24T01:55:39;11.83;;;6.53;;
1885;SDS011;943;51.568;6.998;2023-04-24T01:58:08;9.67;;;6.50;;
1885;SDS011;943;51.568;6.998;2023-04-24T02:00:36;7.63;;;5.87;;
1885;SDS011;943;51.568;6.998;2023-04-24T02:03:04;7.83;;;6.20;;
1885;SDS011;943;51.568;6.998;2023-04-24T02:05:32;8.30;;;6.40;;
1885;SDS011;943;51.568;6.998;2023-04-24T02:08:02;10.73;;;6.90;;
1885;SDS011;943;51.568;6.998;2023-04-24T02:10:30;8.23;;;6.00;;
1885;SDS011;943;51.568;6.998;2023-04-24T02:12:57;7.73;;;5.80;;
1885;SDS011;943;51.568;6.998;2023-04-24T02:15:26;7.70;;;6.40;;
1885;SDS011;943;51.568;6.998;2023-04-24T02:17:55;9.70;;;6.30;;
1885;SDS011;943;51.568;6.998;2023-04-24T02:20:27;6.90;;;5.37;;
1885;SDS011;943;51.568;6.998;2023-04-24T02:22:58;6.47;;;5.70;;
1885;SDS011;943;51.568;6.998;2023-04-24T02:25:30;6.73;;;5.40;;
1885;SDS011;943;51.568;6.998;2023-04-24T02:27:58;10.20;;;6.90;;
1885;SDS011;943;51.568;6.998;2023-04-24T02:30:25;8.00;;;5.43;;
1885;SDS011;943;51.568;6.998;2023-04-24T02:32:53;11.53;;;6.43;;
1885;SDS011;943;51.568;6.998;2023-04-24T02:35:22;10.23;;;6.80;;
1885;SDS011;943;51.568;6.998;2023-04-24T02:37:50;11.00;;;7.13;;
1885;SDS011;943;51.568;6.998;2023-04-24T02:40:17;8.63;;;5.93;;
1885;SDS011;943;51.568;6.998;2023-04-24T02:42:46;8.77;;;7.00;;
1885;SDS011;943;51.568;6.998;2023-04-24T02:45:13;14.50;;;8.67;;
1885;SDS011;943;51.568;6.998;2023-04-24T02:47:42;14.63;;;9.00;;
1885;SDS011;943;51.568;6.998;2023-04-24T02:50:10;14.57;;;9.37;;
1885;SDS011;943;51.568;6.998;2023-04-24T02:52:37;14.70;;;9.50;;
1885;SDS011;943;51.568;6.998;2023-04-24T02:55:05;11.63;;;8.37;;
1885;SDS011;943;51.568;6.998;2023-04-24T02:57:34;15.60;;;9.50;;
1885;SDS011;943;51.568;6.998;2023-04-24T03:00:02;14.30;;;8.37;;
1885;SDS011;943;51.568;6.998;2023-04-24T03:02:33;14.37;;;9.90;;
1885;SDS011;943;51.568;6.998;2023-04-24T03:05:02;15.40;;;9.33;;
1885;SDS011;943;51.568;6.998;2023-04-24T03:07:30;13.07;;;9.73;;
1885;SDS011;943;51.568;6.998;2023-04-24T03:09:59;16.20;;;10.23;;
1885;SDS011;943;51.568;6.998;2023-04-24T03:12:26;16.30;;;11.33;;
1885;SDS011;943;51.568;6.998;2023-04-24T03:14:54;13.80;;;9.70;;
1885;SDS011;943;51.568;6.998;2023-04-24T03:17:22;14.73;;;10.17;;
1885;SDS011;943;51.568;6.998;2023-04-24T03:19:50;14.87;;;10.17;;
1885;SDS011;943;51.568;6.998;2023-04-24T03:22:18;20.40;;;11.20;;
1885;SDS011;943;51.568;6.998;2023-04-24T03:24:46;14.63;;;10.00;;
1885;SDS011;943;51.568;6.998;2023-04-24T03:27:16;15.73;;;10.07;;
1885;SDS011;943;51.568;6.998;2023-04-24T03:29:52;15.30;;;10.73;;
1885;SDS011;943;51.568;6.998;2023-04-24T03:32:29;15.27;;;11.53;;
1885;SDS011;943;51.568;6.998;2023-04-24T03:34:59;18.50;;;11.07;;
1885;SDS011;943;51.568;6.998;2023-04-24T03:37:27;17.10;;;10.60;;
1885;SDS011;943;51.568;6.998;2023-04-24T03:40:08;15.33;;;10.20;;
1885;SDS011;943;51.568;6.998;2023-04-24T03:42:37;15.53;;;10.80;;
1885;SDS011;943;51.568;6.998;2023-04-24T03:45:06;17.60;;;11.17;;
1885;SDS011;943;51.568;6.998;2023-04-24T03:47:38;14.03;;;11.03;;
1885;SDS011;943;51.568;6.998;2023-04-24T03:50:06;17.90;;;11.37;;
1885;SDS011;943;51.568;6.998;2023-04-24T03:52:38;21.23;;;12.03;;
1885;SDS011;943;51.568;6.998;2023-04-24T03:55:07;17.30;;;13.00;;
1885;SDS011;943;51.568;6.998;2023-04-24T03:57:41;13.60;;;11.00;;
1885;SDS011;943;51.568;6.998;2023-04-24T04:00:18;20.40;;;12.00;;
1885;SDS011;943;51.568;6.998;2023-04-24T04:02:52;16.90;;;11.53;;
1885;SDS011;943;51.568;6.998;2023-04-24T04:05:20;17.60;;;13.00;;
1885;SDS011;943;51.568;6.998;2023-04-24T04:07:48;18.17;;;12.50;;
1885;SDS011;943;51.568;6.998;2023-04-24T04:10:17;14.07;;;11.67;;
1885;SDS011;943;51.568;6.998;2023-04-24T04:12:45;16.73;;;11.30;;
1885;SDS011;943;51.568;6.998;2023-04-24T04:15:13;21.13;;;11.67;;
1885;SDS011;943;51.568;6.998;2023-04-24T04:17:41;16.83;;;13.00;;
1885;SDS011;943;51.568;6.998;2023-04-24T04:20:10;16.83;;;11.73;;
1885;SDS011;943;51.568;6.998;2023-04-24T04:22:39;21.13;;;12.80;;
1885;SDS011;943;51.568;6.998;2023-04-24T04:25:15;39.80;;;13.30;;
1885;SDS011;943;51.568;6.998;2023-04-24T04:27:46;18.37;;;11.50;;
1885;SDS011;943;51.568;6.998;2023-04-24T04:30:15;17.20;;;13.10;;
1885;SDS011;943;51.568;6.998;2023-04-24T04:32:49;15.93;;;11.30;;
1885;SDS011;943;51.568;6.998;2023-04-24T04:35:17;22.33;;;13.23;;
1885;SDS011;943;51.568;6.998;2023-04-24T04:37:50;17.97;;;11.80;;
1885;SDS011;943;51.568;6.998;2023-04-24T04:40:44;15.77;;;11.57;;
1885;SDS011;943;51.568;6.998;2023-04-24T04:43:14;15.47;;;11.30;;
1885;SDS011;943;51.568;6.998;2023-04-24T04:45:48;17.37;;;11.83;;
1885;SDS011;943;51.568;6.998;2023-04-24T04:48:31;19.33;;;11.87;;
1885;SDS011;943;51.568;6.998;2023-04-24T04:51:01;15.00;;;10.30;;
1885;SDS011;943;51.568;6.998;2023-04-24T04:53:29;19.80;;;12.03;;
1885;SDS011;943;51.568;6.998;2023-04-24T04:55:57;16.33;;;11.03;;
1885;SDS011;943;51.568;6.998;2023-04-24T04:58:33;16.40;;;11.90;;
1885;SDS011;943;51.568;6.998;2023-04-24T05:01:01;13.27;;;10.47;;
1885;SDS011;943;51.568;6.998;2023-04-24T05:03:35;18.23;;;10.60;;
1885;SDS011;943;51.568;6.998;2023-04-24T05:06:07;15.23;;;12.17;;
1885;SDS011;943;51.568;6.998;2023-04-24T05:08:38;16.73;;;11.27;;
1885;SDS011;943;51.568;6.998;2023-04-24T05:11:16;14.20;;;11.07;;
1885;SDS011;943;51.568;6.998;2023-04-24T05:13:45;14.77;;;10.57;;
1885;SDS011;943;51.568;6.998;2023-04-24T05:16:18;15.13;;;10.03;;
1885;SDS011;943;51.568;6.998;2023-04-24T05:18:48;14.97;;;11.10;;
1885;SDS011;943;51.568;6.998;2023-04-24T05:21:20;18.20;;;10.23;;
1885;SDS011;943;51.568;6.998;2023-04-24T05:23:50;12.57;;;11.20;;
1885;SDS011;943;51.568;6.998;2023-04-24T05:26:31;12.30;;;10.80;;
1885;SDS011;943;51.568;6.998;2023-04-24T05:28:59;12.97;;;9.40;;
1885;SDS011;943;51.568;6.998;2023-04-24T05:31:27;16.83;;;9.57;;
1885;SDS011;943;51.568;6.998;2023-04-24T05:33:56;16.00;;;11.13;;
1885;SDS011;943;51.568;6.998;2023-04-24T05:36:23;12.60;;;9.90;;
1885;SDS011;943;51.568;6.998;2023-04-24T05:38:51;15.40;;;10.67;;
1885;SDS011;943;51.568;6.998;2023-04-24T05:41:19;15.47;;;10.13;;
1885;SDS011;943;51.568;6.998;2023-04-24T05:43:47;12.10;;;10.07;;
1885;SDS011;943;51.568;6.998;2023-04-24T05:46:15;14.07;;;9.60;;
1885;SDS011;943;51.568;6.998;2023-04-24T05:48:43;11.83;;;10.10;;
1885;SDS011;943;51.568;6.998;2023-04-24T05:51:11;13.53;;;10.90;;
1885;SDS011;943;51.568;6.998;2023-04-24T05:53:41;13.43;;;11.60;;
1885;SDS011;943;51.568;6.998;2023-04-24T05:56:09;16.87;;;11.00;;
1885;SDS011;943;51.568;6.998;2023-04-24T05:58:39;16.07;;;10.90;;
1885;SDS011;943;51.568;6.998;2023-04-24T06:01:08;14.67;;;12.40;;
1885;SDS011;943;51.568;6.998;2023-04-24T06:03:37;14.20;;;10.53;;
1885;SDS011;943;51.568;6.998;2023-04-24T06:06:06;12.23;;;9.97;;
1885;SDS011;943;51.568;6.998;2023-04-24T06:08:35;17.63;;;11.27;;
1885;SDS011;943;51.568;6.998;2023-04-24T06:11:03;12.10;;;9.60;;
1885;SDS011;943;51.568;6.998;2023-04-24T06:13:31;12.57;;;9.10;;
1885;SDS011;943;51.568;6.998;2023-04-24T06:16:19;14.00;;;11.10;;
1885;SDS011;943;51.568;6.998;2023-04-24T06:18:54;13.10;;;9.70;;
1885;SDS011;943;51.568;6.998;2023-04-24T06:21:21;13.60;;;10.30;;
1885;SDS011;943;51.568;6.998;2023-04-24T06:23:49;16.77;;;10.30;;
1885;SDS011;943;51.568;6.998;2023-04-24T06:26:17;14.43;;;10.40;;
1885;SDS011;943;51.568;6.998;2023-04-24T06:28:45;17.50;;;10.03;;
1885;SDS011;943;51.568;6.998;2023-04-24T06:31:13;15.83;;;11.20;;
1885;SDS011;943;51.568;6.998;2023-04-24T06:33:40;18.53;;;10.50;;
1885;SDS011;943;51.568;6.998;2023-04-24T06:36:08;16.13;;;10.67;;
1885;SDS011;943;51.568;6.998;2023-04-24T06:38:37;13.77;;;10.43;;
1885;SDS011;943;51.568;6.998;2023-04-24T06:41:05;13.37;;;8.47;;
1885;SDS011;943;51.568;6.998;2023-04-24T06:43:33;13.90;;;10.10;;
1885;SDS011;943;51.568;6.998;2023-04-24T06:46:01;16.67;;;10.77;;
1885;SDS011;943;51.568;6.998;2023-04-24T06:48:30;13.87;;;10.10;;
1885;SDS011;943;51.568;6.998;2023-04-24T06:50:58;13.83;;;10.20;;
1885;SDS011;943;51.568;6.998;2023-04-24T06:53:26;11.07;;;8.70;;
1885;SDS011;943;51.568;6.998;2023-04-24T06:55:53;12.43;;;9.53;;
1885;SDS011;943;51.568;6.998;2023-04-24T06:58:22;12.40;;;8.70;;
1885;SDS011;943;51.568;6.998;2023-04-24T07:00:52;11.30;;;7.90;;
1885;SDS011;943;51.568;6.998;2023-04-24T07:03:20;8.93;;;7.50;;
1885;SDS011;943;51.568;6.998;2023-04-24T07:05:48;9.00;;;7.37;;
1885;SDS011;943;51.568;6.998;2023-04-24T07:08:16;9.10;;;6.73;;
1885;SDS011;943;51.568;6.998;2023-04-24T07:10:44;8.40;;;7.00;;
1885;SDS011;943;51.568;6.998;2023-04-24T07:13:12;9.43;;;7.67;;
1885;SDS011;943;51.568;6.998;2023-04-24T07:15:40;8.23;;;6.50;;
1885;SDS011;943;51.568;6.998;2023-04-24T07:18:07;8.60;;;7.53;;
1885;SDS011;943;51.568;6.998;2023-04-24T07:20:36;12.57;;;7.87;;
1885;SDS011;943;51.568;6.998;2023-04-24T07:23:04;9.27;;;7.23;;
1885;SDS011;943;51.568;6.998;2023-04-24T07:25:32;9.43;;;7.33;;
1885;SDS011;943;51.568;6.998;2023-04-24T07:28:00;9.50;;;7.37;;
1885;SDS011;943;51.568;6.998;2023-04-24T07:30:29;9.80;;;7.70;;
1885;SDS011;943;51.568;6.998;2023-04-24T07:32:59;9.10;;;6.80;;
1885;SDS011;943;51.568;6.998;2023-04-24T07:35:27;8.90;;;6.50;;
1885;SDS011;943;51.568;6.998;2023-04-24T07:37:55;8.67;;;6.87;;
1885;SDS011;943;51.568;6.998;2023-04-24T07:40:23;8.90;;;6.03;;
1885;SDS011;943;51.568;6.998;2023-04-24T07:42:51;6.60;;;4.27;;
1885;SDS011;943;51.568;6.998;2023-04-24T07:45:18;7.00;;;4.83;;
1885;SDS011;943;51.568;6.998;2023-04-24T07:47:46;4.23;;;3.30;;
1885;SDS011;943;51.568;6.998;2023-04-24T07:50:14;4.23;;;2.97;;
1885;SDS011;943;51.568;6.998;2023-04-24T07:52:42;3.40;;;2.80;;
1885;SDS011;943;51.568;6.998;2023-04-24T07:55:10;6.13;;;2.20;;
1885;SDS011;943;51.568;6.998;2023-04-24T07:57:38;6.00;;;2.20;;
1885;SDS011;943;51.568;6.998;2023-04-24T08:00:06;6.30;;;2.83;;
1885;SDS011;943;51.568;6.998;2023-04-24T08:02:38;3.10;;;1.70;;
1885;SDS011;943;51.568;6.998;2023-04-24T08:05:06;3.30;;;1.67;;
1885;SDS011;943;51.568;6.998;2023-04-24T08:07:35;3.73;;;2.10;;
1885;SDS011;943;51.568;6.998;2023-04-24T08:10:05;4.30;;;2.70;;
1885;SDS011;943;51.568;6.998;2023-04-24T08:12:34;4.70;;;2.90;;
1885;SDS011;943;51.568;6.998;2023-04-24T08:15:02;4.93;;;3.20;;
1885;SDS011;943;51.568;6.998;2023-04-24T08:17:32;4.40;;;3.13;;
1885;SDS011;943;51.568;6.998;2023-04-24T08:20:03;4.67;;;3.17;;
1885;SDS011;943;51.568;6.998;2023-04-24T08:22:36;5.40;;;3.20;;
1885;SDS011;943;51.568;6.998;2023-04-24T08:25:04;4.40;;;2.90;;
1885;SDS011;943;51.568;6.998;2023-04-24T08:27:33;6.00;;;3.10;;
1885;SDS011;943;51.568;6.998;2023-04-24T08:30:03;5.33;;;2.93;;
1885;SDS011;943;51.568;6.998;2023-04-24T08:32:33;4.40;;;2.63;;
1885;SDS011;943;51.568;6.998;2023-04-24T08:35:01;3.73;;;2.60;;
1885;SDS011;943;51.568;6.998;2023-04-24T08:37:29;4.43;;;3.10;;
1885;SDS011;943;51.568;6.998;2023-04-24T08:39:57;5.70;;;3.10;;
1885;SDS011;943;51.568;6.998;2023-04-24T08:42:25;4.70;;;3.30;;
1885;SDS011;943;51.568;6.998;2023-04-24T08:44:59;4.20;;;3.00;;
1885;SDS011;943;51.568;6.998;2023-04-24T08:47:29;5.33;;;3.43;;
1885;SDS011;943;51.568;6.998;2023-04-24T08:49:59;7.43;;;3.67;;
1885;SDS011;943;51.568;6.998;2023-04-24T08:52:32;6.20;;;4.33;;
1885;SDS011;943;51.568;6.998;2023-04-24T08:55:02;6.03;;;4.50;;
1885;SDS011;943;51.568;6.998;2023-04-24T08:57:31;7.80;;;4.80;;
1885;SDS011;943;51.568;6.998;2023-04-24T09:00:00;5.67;;;4.80;;
1885;SDS011;943;51.568;6.998;2023-04-24T09:02:29;6.17;;;5.23;;
1885;SDS011;943;51.568;6.998;2023-04-24T09:04:58;5.37;;;4.00;;
1885;SDS011;943;51.568;6.998;2023-04-24T09:07:30;4.60;;;3.50;;
1885;SDS011;943;51.568;6.998;2023-04-24T09:10:06;4.33;;;2.80;;
1885;SDS011;943;51.568;6.998;2023-04-24T09:12:35;4.07;;;2.70;;
1885;SDS011;943;51.568;6.998;2023-04-24T09:15:03;4.93;;;3.27;;
1885;SDS011;943;51.568;6.998;2023-04-24T09:17:35;4.70;;;2.63;;
1885;SDS011;943;51.568;6.998;2023-04-24T09:20:04;3.80;;;2.97;;
1885;SDS011;943;51.568;6.998;2023-04-24T09:22:33;5.37;;;3.10;;
1885;SDS011;943;51.568;6.998;2023-04-24T09:25:05;3.40;;;2.67;;
1885;SDS011;943;51.568;6.998;2023-04-24T09:27:41;3.97;;;2.57;;
1885;SDS011;943;51.568;6.998;2023-04-24T09:30:12;3.53;;;2.20;;
1885;SDS011;943;51.568;6.998;2023-04-24T09:32:47;4.07;;;2.70;;
1885;SDS011;943;51.568;6.998;2023-04-24T09:35:15;3.90;;;3.00;;
1885;SDS011;943;51.568;6.998;2023-04-24T09:37:43;4.93;;;3.73;;
1885;SDS011;943;51.568;6.998;2023-04-24T09:40:16;12.33;;;6.23;;
1885;SDS011;943;51.568;6.998;2023-04-24T09:42:53;7.97;;;5.50;;
1885;SDS011;943;51.568;6.998;2023-04-24T09:45:27;11.10;;;7.60;;
1885;SDS011;943;51.568;6.998;2023-04-24T09:48:04;13.20;;;7.50;;
1885;SDS011;943;51.568;6.998;2023-04-24T09:50:36;8.17;;;6.60;;
1885;SDS011;943;51.568;6.998;2023-04-24T09:53:05;13.63;;;9.07;;
1885;SDS011;943;51.568;6.998;2023-04-24T09:55:38;16.93;;;11.93;;
1885;SDS011;943;51.568;6.998;2023-04-24T09:58:16;11.63;;;8.73;;
1885;SDS011;943;51.568;6.998;2023-04-24T10:00:44;12.80;;;8.70;;
1885;SDS011;943;51.568;6.998;2023-04-24T10:03:13;16.27;;;8.00;;
1885;SDS011;943;51.568;6.998;2023-04-24T10:05:44;13.83;;;8.80;;
1885;SDS011;943;51.568;6.998;2023-04-24T10:08:14;17.80;;;8.37;;
1885;SDS011;943;51.568;6.998;2023-04-24T10:10:42;12.53;;;8.43;;
1885;SDS011;943;51.568;6.998;2023-04-24T10:13:13;15.50;;;9.00;;
1885;SDS011;943;51.568;6.998;2023-04-24T10:15:42;12.30;;;9.17;;
1885;SDS011;943;51.568;6.998;2023-04-24T10:18:11;12.93;;;9.63;;
1885;SDS011;943;51.568;6.998;2023-04-24T10:20:39;17.53;;;10.57;;
1885;SDS011;943;51.568;6.998;2023-04-24T10:23:09;19.90;;;12.20;;
1885;SDS011;943;51.568;6.998;2023-04-24T10:25:39;21.40;;;12.30;;
1885;SDS011;943;51.568;6.998;2023-04-24T10:28:08;14.60;;;10.10;;
1885;SDS011;943;51.568;6.998;2023-04-24T10:30:38;13.07;;;9.70;;
1885;SDS011;943;51.568;6.998;2023-04-24T10:33:10;14.63;;;11.20;;
1885;SDS011;943;51.568;6.998;2023-04-24T10:35:44;15.60;;;10.67;;
1885;SDS011;943;51.568;6.998;2023-04-24T10:38:21;13.40;;;9.10;;
1885;SDS011;943;51.568;6.998;2023-04-24T10:40:58;16.13;;;10.20;;
1885;SDS011;943;51.568;6.998;2023-04-24T10:46:39;21.10;;;12.23;;
1885;SDS011;943;51.568;6.998;2023-04-24T10:49:27;12.90;;;10.23;;
1885;SDS011;943;51.568;6.998;2023-04-24T10:52:02;17.67;;;9.20;;
1885;SDS011;943;51.568;6.998;2023-04-24T10:54:35;18.47;;;10.10;;
1885;SDS011;943;51.568;6.998;2023-04-24T10:59:46;22.30;;;10.47;;
1885;SDS011;943;51.568;6.998;2023-04-24T11:02:36;25.10;;;13.70;;
1885;SDS011;943;51.568;6.998;2023-04-24T11:05:10;23.90;;;12.07;;
1885;SDS011;943;51.568;6.998;2023-04-24T11:10:59;20.00;;;11.47;;
1885;SDS011;943;51.568;6.998;2023-04-24T11:19:20;20.07;;;10.60;;
1885;SDS011;943;51.568;6.998;2023-04-24T11:21:59;15.90;;;10.67;;
1885;SDS011;943;51.568;6.998;2023-04-24T11:27:21;18.40;;;8.40;;
1885;SDS011;943;51.568;6.998;2023-04-24T11:32:27;13.13;;;6.67;;
1885;SDS011;943;51.568;6.998;2023-04-24T11:35:08;12.57;;;6.23;;
1885;SDS011;943;51.568;6.998;2023-04-24T11:37:52;12.93;;;6.07;;
1885;SDS011;943;51.568;6.998;2023-04-24T11:40:25;14.07;;;7.63;;
1885;SDS011;943;51.568;6.998;2023-04-24T11:42:52;8.80;;;5.80;;
1885;SDS011;943;51.568;6.998;2023-04-24T11:45:26;12.00;;;6.53;;
1885;SDS011;943;51.568;6.998;2023-04-24T11:47:57;15.67;;;6.73;;
1885;SDS011;943;51.568;6.998;2023-04-24T11:50:26;8.33;;;4.50;;
1885;SDS011;943;51.568;6.998;2023-04-24T11:52:55;10.40;;;4.70;;
1885;SDS011;943;51.568;6.998;2023-04-24T11:55:27;9.37;;;4.70;;
1885;SDS011;943;51.568;6.998;2023-04-24T11:57:57;7.23;;;5.23;;
1885;SDS011;943;51.568;6.998;2023-04-24T12:00:28;7.20;;;4.83;;
1885;SDS011;943;51.568;6.998;2023-04-24T12:03:09;8.37;;;4.70;;
1885;SDS011;943;51.568;6.998;2023-04-24T12:05:39;10.20;;;4.63;;
1885;SDS011;943;51.568;6.998;2023-04-24T12:08:07;9.70;;;5.03;;
1885;SDS011;943;51.568;6.998;2023-04-24T12:10:35;13.47;;;5.43;;
1885;SDS011;943;51.568;6.998;2023-04-24T12:13:03;8.60;;;4.67;;
1885;SDS011;943;51.568;6.998;2023-04-24T12:15:31;6.10;;;4.67;;
1885;SDS011;943;51.568;6.998;2023-04-24T12:18:00;21.13;;;5.57;;
1885;SDS011;943;51.568;6.998;2023-04-24T12:20:30;8.20;;;4.50;;
1885;SDS011;943;51.568;6.998;2023-04-24T12:23:00;6.10;;;3.90;;
1885;SDS011;943;51.568;6.998;2023-04-24T12:25:29;8.80;;;4.90;;
1885;SDS011;943;51.568;6.998;2023-04-24T12:30:31;16.40;;;5.83;;
1885;SDS011;943;51.568;6.998;2023-04-24T12:33:07;10.63;;;4.80;;
1885;SDS011;943;51.568;6.998;2023-04-24T12:35:36;9.57;;;5.57;;
1885;SDS011;943;51.568;6.998;2023-04-24T12:38:08;11.40;;;6.00;;
1885;SDS011;943;51.568;6.998;2023-04-24T12:40:40;7.20;;;5.57;;
1885;SDS011;943;51.568;6.998;2023-04-24T12:43:17;7.80;;;5.73;;
1885;SDS011;943;51.568;6.998;2023-04-24T12:45:47;8.87;;;5.37;;
1885;SDS011;943;51.568;6.998;2023-04-24T12:48:15;8.27;;;5.37;;
1885;SDS011;943;51.568;6.998;2023-04-24T12:50:43;8.27;;;4.70;;
1885;SDS011;943;51.568;6.998;2023-04-24T12:53:13;7.50;;;5.13;;
1885;SDS011;943;51.568;6.998;2023-04-24T12:55:42;5.50;;;3.60;;
1885;SDS011;943;51.568;6.998;2023-04-24T12:58:22;7.83;;;3.50;;
1885;SDS011;943;51.568;6.998;2023-04-24T13:00:50;13.73;;;3.27;;
1885;SDS011;943;51.568;6.998;2023-04-24T13:03:18;7.10;;;3.20;;
1885;SDS011;943;51.568;6.998;2023-04-24T13:05:47;7.40;;;3.70;;
1885;SDS011;943;51.568;6.998;2023-04-24T13:08:14;7.80;;;3.23;;
1885;SDS011;943;51.568;6.998;2023-04-24T13:10:42;5.23;;;3.23;;
1885;SDS011;943;51.568;6.998;2023-04-24T13:13:10;5.17;;;2.80;;
1885;SDS011;943;51.568;6.998;2023-04-24T13:15:39;5.10;;;2.90;;
1885;SDS011;943;51.568;6.998;2023-04-24T13:18:06;7.67;;;3.70;;
1885;SDS011;943;51.568;6.998;2023-04-24T13:20:34;4.43;;;2.47;;
1885;SDS011;943;51.568;6.998;2023-04-24T13:23:02;5.73;;;3.37;;
1885;SDS011;943;51.568;6.998;2023-04-24T13:25:34;4.40;;;2.63;;
1885;SDS011;943;51.568;6.998;2023-04-24T13:28:06;5.53;;;2.80;;
1885;SDS011;943;51.568;6.998;2023-04-24T13:30:34;7.43;;;3.03;;
1885;SDS011;943;51.568;6.998;2023-04-24T13:33:01;4.60;;;3.27;;
1885;SDS011;943;51.568;6.998;2023-04-24T13:35:30;5.67;;;3.23;;
1885;SDS011;943;51.568;6.998;2023-04-24T13:37:58;8.27;;;3.43;;
1885;SDS011;943;51.568;6.998;2023-04-24T13:40:27;8.17;;;3.63;;
1885;SDS011;943;51.568;6.998;2023-04-24T13:42:55;3.87;;;3.10;;
1885;SDS011;943;51.568;6.998;2023-04-24T13:45:23;6.03;;;3.50;;
1885;SDS011;943;51.568;6.998;2023-04-24T13:47:51;6.33;;;3.50;;
1885;SDS011;943;51.568;6.998;2023-04-24T13:50:23;4.63;;;2.30;;
1885;SDS011;943;51.568;6.998;2023-04-24T13:52:52;4.20;;;2.73;;
1885;SDS011;943;51.568;6.998;2023-04-24T13:55:20;4.60;;;3.17;;
1885;SDS011;943;51.568;6.998;2023-04-24T13:57:49;12.10;;;2.70;;
1885;SDS011;943;51.568;6.998;2023-04-24T14:00:18;7.23;;;3.27;;
1885;SDS011;943;51.568;6.998;2023-04-24T14:02:47;7.17;;;3.60;;
1885;SDS011;943;51.568;6.998;2023-04-24T14:05:15;4.90;;;3.47;;
1885;SDS011;943;51.568;6.998;2023-04-24T14:07:43;5.93;;;3.63;;
1885;SDS011;943;51.568;6.998;2023-04-24T14:10:11;4.90;;;3.10;;
1885;SDS011;943;51.568;6.998;2023-04-24T14:12:39;4.53;;;2.90;;
1885;SDS011;943;51.568;6.998;2023-04-24T14:15:07;4.70;;;2.90;;
1885;SDS011;943;51.568;6.998;2023-04-24T14:17:36;5.10;;;3.17;;
1885;SDS011;943;51.568;6.998;2023-04-24T14:20:04;4.63;;;2.67;;
1885;SDS011;943;51.568;6.998;2023-04-24T14:22:33;6.03;;;2.97;;
1885;SDS011;943;51.568;6.998;2023-04-24T14:25:01;4.80;;;2.83;;
1885;SDS011;943;51.568;6.998;2023-04-24T14:27:30;9.07;;;3.00;;
1885;SDS011;943;51.568;6.998;2023-04-24T14:30:01;7.93;;;3.53;;
1885;SDS011;943;51.568;6.998;2023-04-24T14:32:31;4.60;;;3.23;;
1885;SDS011;943;51.568;6.998;2023-04-24T14:34:58;9.50;;;4.10;;
1885;SDS011;943;51.568;6.998;2023-04-24T14:37:26;6.50;;;4.23;;
1885;SDS011;943;51.568;6.998;2023-04-24T14:39:54;7.43;;;3.90;;
1885;SDS011;943;51.568;6.998;2023-04-24T14:42:41;5.50;;;4.10;;
1885;SDS011;943;51.568;6.998;2023-04-24T14:45:09;9.30;;;5.53;;
1885;SDS011;943;51.568;6.998;2023-04-24T14:47:37;9.20;;;5.00;;
1885;SDS011;943;51.568;6.998;2023-04-24T14:50:06;7.63;;;4.40;;
1885;SDS011;943;51.568;6.998;2023-04-24T14:52:35;5.70;;;5.00;;
1885;SDS011;943;51.568;6.998;2023-04-24T14:55:04;5.60;;;3.97;;
1885;SDS011;943;51.568;6.998;2023-04-24T14:57:33;8.40;;;4.37;;
1885;SDS011;943;51.568;6.998;2023-04-24T15:00:03;6.27;;;5.60;;
1885;SDS011;943;51.568;6.998;2023-04-24T15:02:35;10.83;;;5.33;;
1885;SDS011;943;51.568;6.998;2023-04-24T15:05:06;4.60;;;2.90;;
1885;SDS011;943;51.568;6.998;2023-04-24T15:07:35;5.67;;;3.07;;
1885;SDS011;943;51.568;6.998;2023-04-24T15:10:08;9.03;;;3.00;;
1885;SDS011;943;51.568;6.998;2023-04-24T15:12:36;4.40;;;2.43;;
1885;SDS011;943;51.568;6.998;2023-04-24T15:15:05;4.43;;;2.33;;
1885;SDS011;943;51.568;6.998;2023-04-24T15:17:34;3.20;;;1.63;;
1885;SDS011;943;51.568;6.998;2023-04-24T15:20:02;3.80;;;1.50;;
1885;SDS011;943;51.568;6.998;2023-04-24T15:22:32;2.47;;;1.33;;
1885;SDS011;943;51.568;6.998;2023-04-24T15:25:01;3.17;;;1.87;;
1885;SDS011;943;51.568;6.998;2023-04-24T15:27:38;3.93;;;1.70;;
1885;SDS011;943;51.568;6.998;2023-04-24T15:30:11;3.07;;;1.40;;
1885;SDS011;943;51.568;6.998;2023-04-24T15:32:40;2.50;;;1.57;;
1885;SDS011;943;51.568;6.998;2023-04-24T15:35:08;3.30;;;1.70;;
1885;SDS011;943;51.568;6.998;2023-04-24T15:37:37;3.13;;;1.63;;
1885;SDS011;943;51.568;6.998;2023-04-24T15:40:06;3.37;;;1.60;;
1885;SDS011;943;51.568;6.998;2023-04-24T15:42:36;3.67;;;1.97;;
1885;SDS011;943;51.568;6.998;2023-04-24T15:45:04;4.80;;;1.97;;
1885;SDS011;943;51.568;6.998;2023-04-24T15:47:33;3.50;;;1.97;;
1885;SDS011;943;51.568;6.998;2023-04-24T15:50:02;4.43;;;1.80;;
1885;SDS011;943;51.568;6.998;2023-04-24T15:52:36;4.73;;;1.87;;
1885;SDS011;943;51.568;6.998;2023-04-24T15:55:05;3.80;;;2.00;;
1885;SDS011;943;51.568;6.998;2023-04-24T15:57:33;6.50;;;1.90;;
1885;SDS011;943;51.568;6.998;2023-04-24T16:00:01;2.93;;;1.70;;